Ann Arbor, Michigan
Current Conditions -  °F | °C
As of 10:53 AM on Sunday 25 Jan 2015 (Local Time) from KARB Reporting Station
Overcast Overcast  
Wind Chill: 12°   Ceiling: 3500
Heat Index: 24°   Visibility: 10mi
Dew Point: 16°   Wind: 13mph
Humidity: 71%   Direction: 60°ENE
Pressure: 29.88"   Gusts: 21mph
Location:  42.28°N, 83.75°W
Report Text: KARB 251553Z 06011G18KT 10SM OVC035 M04/M09 A2988 RMK AO2 SLP129 T10441089
Loading
Personal Weather Stations






























Interactive Weather Map New forecast layout! Learn more

10-Day Weather Forecast

Advertisements
Track Severe Weather on mobile